sensor_id;sensor_type;location;lat;lon;timestamp;P1;durP1;ratioP1;P2;durP2;ratioP2
64339;SDS011;63709;53.258;-8.814;2022-12-18T00:01:39;31.77;;;14.10;;
64339;SDS011;63709;53.258;-8.814;2022-12-18T00:04:05;24.05;;;11.50;;
64339;SDS011;63709;53.258;-8.814;2022-12-18T00:06:34;23.17;;;11.30;;
64339;SDS011;63709;53.258;-8.814;2022-12-18T00:09:00;16.13;;;10.13;;
64339;SDS011;63709;53.258;-8.814;2022-12-18T00:11:29;21.25;;;10.70;;
64339;SDS011;63709;53.258;-8.814;2022-12-18T00:13:56;24.98;;;12.35;;
64339;SDS011;63709;53.258;-8.814;2022-12-18T00:16:24;21.67;;;10.25;;
64339;SDS011;63709;53.258;-8.814;2022-12-18T00:18:53;23.15;;;10.00;;
64339;SDS011;63709;53.258;-8.814;2022-12-18T00:21:21;23.38;;;11.38;;
64339;SDS011;63709;53.258;-8.814;2022-12-18T00:23:47;23.90;;;10.45;;
64339;SDS011;63709;53.258;-8.814;2022-12-18T00:26:14;18.00;;;9.10;;
64339;SDS011;63709;53.258;-8.814;2022-12-18T00:28:42;18.15;;;9.52;;
64339;SDS011;63709;53.258;-8.814;2022-12-18T00:31:10;20.35;;;9.98;;
64339;SDS011;63709;53.258;-8.814;2022-12-18T00:33:39;16.75;;;9.15;;
64339;SDS011;63709;53.258;-8.814;2022-12-18T00:36:05;17.85;;;9.48;;
64339;SDS011;63709;53.258;-8.814;2022-12-18T00:38:39;18.15;;;9.32;;
64339;SDS011;63709;53.258;-8.814;2022-12-18T00:41:06;17.77;;;9.23;;
64339;SDS011;63709;53.258;-8.814;2022-12-18T00:43:34;16.20;;;8.63;;
64339;SDS011;63709;53.258;-8.814;2022-12-18T00:46:02;16.23;;;8.65;;
64339;SDS011;63709;53.258;-8.814;2022-12-18T00:48:28;17.92;;;8.63;;
64339;SDS011;63709;53.258;-8.814;2022-12-18T00:53:19;15.55;;;9.15;;
64339;SDS011;63709;53.258;-8.814;2022-12-18T00:55:45;19.15;;;9.50;;
64339;SDS011;63709;53.258;-8.814;2022-12-18T00:58:12;20.55;;;10.10;;
64339;SDS011;63709;53.258;-8.814;2022-12-18T01:00:40;19.15;;;9.27;;
64339;SDS011;63709;53.258;-8.814;2022-12-18T01:03:06;23.88;;;9.68;;
64339;SDS011;63709;53.258;-8.814;2022-12-18T01:05:32;17.42;;;10.07;;
64339;SDS011;63709;53.258;-8.814;2022-12-18T01:07:59;17.45;;;9.50;;
64339;SDS011;63709;53.258;-8.814;2022-12-18T01:10:25;22.42;;;8.70;;
64339;SDS011;63709;53.258;-8.814;2022-12-18T01:12:51;24.15;;;8.95;;
64339;SDS011;63709;53.258;-8.814;2022-12-18T01:15:18;20.52;;;9.50;;
64339;SDS011;63709;53.258;-8.814;2022-12-18T01:17:45;20.98;;;8.82;;
64339;SDS011;63709;53.258;-8.814;2022-12-18T01:20:11;22.20;;;9.20;;
64339;SDS011;63709;53.258;-8.814;2022-12-18T01:25:07;18.35;;;8.45;;
64339;SDS011;63709;53.258;-8.814;2022-12-18T01:27:33;17.42;;;8.60;;
64339;SDS011;63709;53.258;-8.814;2022-12-18T01:29:59;14.13;;;8.43;;
64339;SDS011;63709;53.258;-8.814;2022-12-18T01:32:25;20.52;;;8.60;;
64339;SDS011;63709;53.258;-8.814;2022-12-18T01:34:51;16.88;;;7.45;;
64339;SDS011;63709;53.258;-8.814;2022-12-18T01:37:17;17.40;;;7.78;;
64339;SDS011;63709;53.258;-8.814;2022-12-18T01:39:44;12.75;;;6.45;;
64339;SDS011;63709;53.258;-8.814;2022-12-18T01:42:14;15.75;;;6.88;;
64339;SDS011;63709;53.258;-8.814;2022-12-18T01:47:27;15.23;;;7.40;;
64339;SDS011;63709;53.258;-8.814;2022-12-18T01:49:54;19.02;;;7.75;;
64339;SDS011;63709;53.258;-8.814;2022-12-18T01:52:22;17.08;;;7.25;;
64339;SDS011;63709;53.258;-8.814;2022-12-18T01:54:51;15.50;;;7.57;;
64339;SDS011;63709;53.258;-8.814;2022-12-18T01:57:17;12.55;;;7.70;;
64339;SDS011;63709;53.258;-8.814;2022-12-18T01:59:45;15.30;;;7.40;;
64339;SDS011;63709;53.258;-8.814;2022-12-18T02:02:14;14.68;;;7.25;;
64339;SDS011;63709;53.258;-8.814;2022-12-18T02:04:41;14.07;;;7.18;;
64339;SDS011;63709;53.258;-8.814;2022-12-18T02:20:54;15.95;;;7.60;;
64339;SDS011;63709;53.258;-8.814;2022-12-18T02:29:06;19.98;;;7.13;;
64339;SDS011;63709;53.258;-8.814;2022-12-18T02:31:36;15.93;;;6.25;;
64339;SDS011;63709;53.258;-8.814;2022-12-18T02:34:08;13.48;;;6.00;;
64339;SDS011;63709;53.258;-8.814;2022-12-18T02:36:37;14.32;;;6.55;;
64339;SDS011;63709;53.258;-8.814;2022-12-18T02:39:09;13.98;;;7.15;;
64339;SDS011;63709;53.258;-8.814;2022-12-18T02:41:37;15.88;;;6.97;;
64339;SDS011;63709;53.258;-8.814;2022-12-18T02:44:09;13.77;;;6.78;;
64339;SDS011;63709;53.258;-8.814;2022-12-18T02:46:44;15.25;;;6.85;;
64339;SDS011;63709;53.258;-8.814;2022-12-18T02:49:18;11.88;;;6.82;;
64339;SDS011;63709;53.258;-8.814;2022-12-18T02:51:57;13.13;;;5.97;;
64339;SDS011;63709;53.258;-8.814;2022-12-18T03:00:12;14.98;;;5.40;;
64339;SDS011;63709;53.258;-8.814;2022-12-18T03:05:36;15.00;;;4.45;;
64339;SDS011;63709;53.258;-8.814;2022-12-18T03:08:20;14.32;;;5.47;;
64339;SDS011;63709;53.258;-8.814;2022-12-18T03:10:56;10.85;;;3.55;;
64339;SDS011;63709;53.258;-8.814;2022-12-18T03:13:49;10.68;;;4.28;;
64339;SDS011;63709;53.258;-8.814;2022-12-18T03:16:28;18.73;;;4.32;;
64339;SDS011;63709;53.258;-8.814;2022-12-18T03:19:03;12.95;;;3.78;;
64339;SDS011;63709;53.258;-8.814;2022-12-18T03:21:33;12.40;;;4.13;;
64339;SDS011;63709;53.258;-8.814;2022-12-18T03:24:07;17.33;;;4.10;;
64339;SDS011;63709;53.258;-8.814;2022-12-18T03:26:34;18.33;;;5.00;;
64339;SDS011;63709;53.258;-8.814;2022-12-18T03:29:05;15.65;;;4.28;;
64339;SDS011;63709;53.258;-8.814;2022-12-18T03:31:35;16.70;;;4.30;;
64339;SDS011;63709;53.258;-8.814;2022-12-18T03:34:06;12.55;;;3.95;;
64339;SDS011;63709;53.258;-8.814;2022-12-18T03:36:39;8.07;;;3.78;;
64339;SDS011;63709;53.258;-8.814;2022-12-18T03:39:07;11.38;;;3.97;;
64339;SDS011;63709;53.258;-8.814;2022-12-18T03:41:53;15.05;;;4.13;;
64339;SDS011;63709;53.258;-8.814;2022-12-18T03:47:47;11.10;;;4.13;;
64339;SDS011;63709;53.258;-8.814;2022-12-18T03:53:14;7.88;;;3.65;;
64339;SDS011;63709;53.258;-8.814;2022-12-18T03:55:49;12.05;;;4.68;;
64339;SDS011;63709;53.258;-8.814;2022-12-18T03:58:19;12.20;;;3.78;;
64339;SDS011;63709;53.258;-8.814;2022-12-18T04:00:48;19.60;;;4.22;;
64339;SDS011;63709;53.258;-8.814;2022-12-18T04:03:17;14.68;;;4.55;;
64339;SDS011;63709;53.258;-8.814;2022-12-18T04:05:46;12.70;;;3.67;;
64339;SDS011;63709;53.258;-8.814;2022-12-18T04:08:16;8.82;;;3.70;;
64339;SDS011;63709;53.258;-8.814;2022-12-18T04:10:43;12.98;;;3.78;;
64339;SDS011;63709;53.258;-8.814;2022-12-18T04:13:09;12.15;;;4.10;;
64339;SDS011;63709;53.258;-8.814;2022-12-18T04:15:35;10.90;;;4.05;;
64339;SDS011;63709;53.258;-8.814;2022-12-18T04:18:02;13.98;;;4.50;;
64339;SDS011;63709;53.258;-8.814;2022-12-18T04:20:29;9.20;;;3.28;;
64339;SDS011;63709;53.258;-8.814;2022-12-18T04:25:21;13.35;;;3.75;;
64339;SDS011;63709;53.258;-8.814;2022-12-18T04:27:48;15.73;;;4.10;;
64339;SDS011;63709;53.258;-8.814;2022-12-18T04:30:13;10.32;;;3.83;;
64339;SDS011;63709;53.258;-8.814;2022-12-18T04:32:39;12.80;;;3.55;;
64339;SDS011;63709;53.258;-8.814;2022-12-18T04:35:05;10.20;;;3.35;;
64339;SDS011;63709;53.258;-8.814;2022-12-18T04:37:35;17.77;;;3.90;;
64339;SDS011;63709;53.258;-8.814;2022-12-18T04:40:01;9.60;;;3.75;;
64339;SDS011;63709;53.258;-8.814;2022-12-18T04:42:27;8.02;;;3.17;;
64339;SDS011;63709;53.258;-8.814;2022-12-18T04:44:52;10.18;;;2.60;;
64339;SDS011;63709;53.258;-8.814;2022-12-18T04:47:18;5.60;;;1.92;;
64339;SDS011;63709;53.258;-8.814;2022-12-18T04:49:44;5.43;;;1.65;;
64339;SDS011;63709;53.258;-8.814;2022-12-18T04:52:09;7.22;;;2.15;;
64339;SDS011;63709;53.258;-8.814;2022-12-18T04:54:36;10.25;;;2.55;;
64339;SDS011;63709;53.258;-8.814;2022-12-18T04:57:02;8.32;;;2.10;;
64339;SDS011;63709;53.258;-8.814;2022-12-18T04:59:27;9.13;;;2.17;;
64339;SDS011;63709;53.258;-8.814;2022-12-18T05:01:54;6.25;;;1.90;;
64339;SDS011;63709;53.258;-8.814;2022-12-18T05:04:19;7.68;;;2.03;;
64339;SDS011;63709;53.258;-8.814;2022-12-18T05:06:46;10.05;;;2.58;;
64339;SDS011;63709;53.258;-8.814;2022-12-18T05:09:12;6.15;;;1.63;;
64339;SDS011;63709;53.258;-8.814;2022-12-18T05:11:38;6.55;;;1.98;;
64339;SDS011;63709;53.258;-8.814;2022-12-18T05:14:03;15.38;;;2.50;;
64339;SDS011;63709;53.258;-8.814;2022-12-18T05:16:29;7.93;;;2.10;;
64339;SDS011;63709;53.258;-8.814;2022-12-18T05:18:54;8.15;;;2.25;;
64339;SDS011;63709;53.258;-8.814;2022-12-18T05:21:26;7.60;;;2.38;;
64339;SDS011;63709;53.258;-8.814;2022-12-18T05:23:51;12.70;;;1.95;;
64339;SDS011;63709;53.258;-8.814;2022-12-18T05:26:18;7.63;;;2.33;;
64339;SDS011;63709;53.258;-8.814;2022-12-18T05:28:43;4.05;;;1.90;;
64339;SDS011;63709;53.258;-8.814;2022-12-18T05:31:10;9.85;;;2.70;;
64339;SDS011;63709;53.258;-8.814;2022-12-18T05:33:37;10.05;;;2.03;;
64339;SDS011;63709;53.258;-8.814;2022-12-18T05:36:05;10.10;;;2.20;;
64339;SDS011;63709;53.258;-8.814;2022-12-18T05:38:35;8.90;;;1.90;;
64339;SDS011;63709;53.258;-8.814;2022-12-18T05:41:03;9.15;;;1.88;;
64339;SDS011;63709;53.258;-8.814;2022-12-18T05:43:31;6.75;;;2.00;;
64339;SDS011;63709;53.258;-8.814;2022-12-18T05:46:02;9.80;;;2.40;;
64339;SDS011;63709;53.258;-8.814;2022-12-18T05:48:29;6.53;;;2.17;;
64339;SDS011;63709;53.258;-8.814;2022-12-18T05:50:54;9.48;;;2.17;;
64339;SDS011;63709;53.258;-8.814;2022-12-18T05:53:21;9.47;;;2.00;;
64339;SDS011;63709;53.258;-8.814;2022-12-18T05:55:47;12.43;;;3.00;;
64339;SDS011;63709;53.258;-8.814;2022-12-18T05:58:13;9.73;;;2.33;;
64339;SDS011;63709;53.258;-8.814;2022-12-18T06:00:41;9.98;;;2.38;;
64339;SDS011;63709;53.258;-8.814;2022-12-18T06:03:09;6.55;;;1.80;;
64339;SDS011;63709;53.258;-8.814;2022-12-18T06:05:36;8.75;;;2.42;;
64339;SDS011;63709;53.258;-8.814;2022-12-18T06:08:03;8.05;;;2.20;;
64339;SDS011;63709;53.258;-8.814;2022-12-18T06:10:29;8.60;;;2.67;;
64339;SDS011;63709;53.258;-8.814;2022-12-18T06:12:54;6.53;;;1.83;;
64339;SDS011;63709;53.258;-8.814;2022-12-18T06:15:22;6.97;;;2.30;;
64339;SDS011;63709;53.258;-8.814;2022-12-18T06:17:48;11.80;;;2.05;;
64339;SDS011;63709;53.258;-8.814;2022-12-18T06:20:14;9.93;;;2.13;;
64339;SDS011;63709;53.258;-8.814;2022-12-18T06:22:43;8.82;;;2.10;;
64339;SDS011;63709;53.258;-8.814;2022-12-18T06:25:08;9.70;;;2.35;;
64339;SDS011;63709;53.258;-8.814;2022-12-18T06:27:34;13.65;;;2.47;;
64339;SDS011;63709;53.258;-8.814;2022-12-18T06:30:00;10.75;;;2.03;;
64339;SDS011;63709;53.258;-8.814;2022-12-18T06:32:27;6.53;;;1.80;;
64339;SDS011;63709;53.258;-8.814;2022-12-18T06:34:52;9.20;;;2.28;;
64339;SDS011;63709;53.258;-8.814;2022-12-18T06:39:44;8.10;;;2.15;;
64339;SDS011;63709;53.258;-8.814;2022-12-18T06:42:09;14.13;;;2.70;;
64339;SDS011;63709;53.258;-8.814;2022-12-18T06:44:38;10.17;;;2.10;;
64339;SDS011;63709;53.258;-8.814;2022-12-18T06:47:05;9.48;;;2.75;;
64339;SDS011;63709;53.258;-8.814;2022-12-18T06:49:32;12.20;;;2.83;;
64339;SDS011;63709;53.258;-8.814;2022-12-18T06:51:59;6.78;;;2.72;;
64339;SDS011;63709;53.258;-8.814;2022-12-18T06:54:26;13.77;;;2.75;;
64339;SDS011;63709;53.258;-8.814;2022-12-18T06:56:52;9.68;;;2.55;;
64339;SDS011;63709;53.258;-8.814;2022-12-18T06:59:19;9.50;;;2.75;;
64339;SDS011;63709;53.258;-8.814;2022-12-18T07:01:44;8.82;;;2.75;;
64339;SDS011;63709;53.258;-8.814;2022-12-18T07:04:15;8.27;;;2.88;;
64339;SDS011;63709;53.258;-8.814;2022-12-18T07:06:42;10.23;;;3.35;;
64339;SDS011;63709;53.258;-8.814;2022-12-18T07:09:07;7.78;;;2.90;;
64339;SDS011;63709;53.258;-8.814;2022-12-18T07:11:34;9.00;;;3.15;;
64339;SDS011;63709;53.258;-8.814;2022-12-18T07:14:00;11.93;;;3.15;;
64339;SDS011;63709;53.258;-8.814;2022-12-18T07:16:25;8.93;;;2.88;;
64339;SDS011;63709;53.258;-8.814;2022-12-18T07:18:54;11.45;;;3.20;;
64339;SDS011;63709;53.258;-8.814;2022-12-18T07:21:21;12.85;;;3.65;;
64339;SDS011;63709;53.258;-8.814;2022-12-18T07:23:48;15.85;;;4.05;;
64339;SDS011;63709;53.258;-8.814;2022-12-18T07:26:16;13.02;;;3.17;;
64339;SDS011;63709;53.258;-8.814;2022-12-18T07:28:45;10.52;;;4.10;;
64339;SDS011;63709;53.258;-8.814;2022-12-18T07:31:13;8.30;;;3.08;;
64339;SDS011;63709;53.258;-8.814;2022-12-18T07:33:40;9.50;;;3.25;;
64339;SDS011;63709;53.258;-8.814;2022-12-18T07:36:06;10.43;;;3.30;;
64339;SDS011;63709;53.258;-8.814;2022-12-18T07:38:34;8.63;;;3.20;;
64339;SDS011;63709;53.258;-8.814;2022-12-18T07:41:01;8.35;;;3.20;;
64339;SDS011;63709;53.258;-8.814;2022-12-18T07:43:28;7.55;;;2.85;;
64339;SDS011;63709;53.258;-8.814;2022-12-18T07:45:53;8.63;;;3.00;;
64339;SDS011;63709;53.258;-8.814;2022-12-18T07:48:19;11.68;;;3.10;;
64339;SDS011;63709;53.258;-8.814;2022-12-18T07:50:45;8.05;;;3.05;;
64339;SDS011;63709;53.258;-8.814;2022-12-18T07:53:11;6.00;;;2.38;;
64339;SDS011;63709;53.258;-8.814;2022-12-18T07:55:38;6.63;;;2.65;;
64339;SDS011;63709;53.258;-8.814;2022-12-18T07:58:05;9.43;;;2.60;;
64339;SDS011;63709;53.258;-8.814;2022-12-18T08:00:30;11.30;;;3.08;;
64339;SDS011;63709;53.258;-8.814;2022-12-18T08:02:56;10.27;;;2.58;;
64339;SDS011;63709;53.258;-8.814;2022-12-18T08:05:22;6.25;;;2.33;;
64339;SDS011;63709;53.258;-8.814;2022-12-18T08:07:48;6.68;;;2.30;;
64339;SDS011;63709;53.258;-8.814;2022-12-18T08:10:14;5.95;;;2.45;;
64339;SDS011;63709;53.258;-8.814;2022-12-18T08:12:42;8.40;;;2.45;;
64339;SDS011;63709;53.258;-8.814;2022-12-18T08:15:08;9.30;;;2.30;;
64339;SDS011;63709;53.258;-8.814;2022-12-18T08:17:34;6.90;;;2.50;;
64339;SDS011;63709;53.258;-8.814;2022-12-18T08:20:00;9.88;;;2.38;;
64339;SDS011;63709;53.258;-8.814;2022-12-18T08:22:25;7.38;;;2.08;;
64339;SDS011;63709;53.258;-8.814;2022-12-18T08:24:52;5.47;;;1.92;;
64339;SDS011;63709;53.258;-8.814;2022-12-18T08:27:19;4.63;;;2.00;;
64339;SDS011;63709;53.258;-8.814;2022-12-18T08:29:45;6.18;;;2.15;;
64339;SDS011;63709;53.258;-8.814;2022-12-18T08:32:12;4.82;;;2.50;;
64339;SDS011;63709;53.258;-8.814;2022-12-18T08:34:40;8.30;;;2.05;;
64339;SDS011;63709;53.258;-8.814;2022-12-18T08:37:06;4.93;;;2.50;;
64339;SDS011;63709;53.258;-8.814;2022-12-18T08:39:31;4.50;;;1.98;;
64339;SDS011;63709;53.258;-8.814;2022-12-18T08:41:56;8.13;;;1.90;;
64339;SDS011;63709;53.258;-8.814;2022-12-18T08:44:41;7.22;;;2.08;;
64339;SDS011;63709;53.258;-8.814;2022-12-18T08:47:07;4.25;;;1.80;;
64339;SDS011;63709;53.258;-8.814;2022-12-18T08:52:00;5.78;;;2.03;;
64339;SDS011;63709;53.258;-8.814;2022-12-18T08:54:26;5.07;;;1.98;;
64339;SDS011;63709;53.258;-8.814;2022-12-18T08:56:53;8.10;;;2.22;;
64339;SDS011;63709;53.258;-8.814;2022-12-18T08:59:18;6.82;;;2.00;;
64339;SDS011;63709;53.258;-8.814;2022-12-18T09:01:45;5.40;;;2.25;;
64339;SDS011;63709;53.258;-8.814;2022-12-18T09:04:13;5.55;;;2.35;;
64339;SDS011;63709;53.258;-8.814;2022-12-18T09:06:42;7.93;;;2.60;;
64339;SDS011;63709;53.258;-8.814;2022-12-18T09:09:08;8.20;;;2.17;;
64339;SDS011;63709;53.258;-8.814;2022-12-18T09:11:35;5.10;;;2.65;;
64339;SDS011;63709;53.258;-8.814;2022-12-18T09:14:01;5.10;;;2.10;;
64339;SDS011;63709;53.258;-8.814;2022-12-18T09:16:27;5.45;;;2.10;;
64339;SDS011;63709;53.258;-8.814;2022-12-18T09:18:54;4.47;;;1.80;;
64339;SDS011;63709;53.258;-8.814;2022-12-18T09:21:25;5.65;;;2.05;;
64339;SDS011;63709;53.258;-8.814;2022-12-18T09:23:53;4.38;;;2.00;;
64339;SDS011;63709;53.258;-8.814;2022-12-18T09:26:21;3.60;;;1.50;;
64339;SDS011;63709;53.258;-8.814;2022-12-18T09:28:49;3.42;;;1.50;;
64339;SDS011;63709;53.258;-8.814;2022-12-18T09:31:15;3.05;;;1.65;;
64339;SDS011;63709;53.258;-8.814;2022-12-18T09:33:43;3.42;;;1.85;;
64339;SDS011;63709;53.258;-8.814;2022-12-18T09:36:12;3.05;;;1.58;;
64339;SDS011;63709;53.258;-8.814;2022-12-18T09:38:40;4.95;;;1.50;;
64339;SDS011;63709;53.258;-8.814;2022-12-18T09:41:17;3.45;;;1.45;;
64339;SDS011;63709;53.258;-8.814;2022-12-18T09:43:53;3.60;;;1.65;;
64339;SDS011;63709;53.258;-8.814;2022-12-18T09:46:33;2.78;;;1.55;;
64339;SDS011;63709;53.258;-8.814;2022-12-18T09:49:04;3.08;;;1.58;;
64339;SDS011;63709;53.258;-8.814;2022-12-18T09:51:37;2.20;;;1.20;;
64339;SDS011;63709;53.258;-8.814;2022-12-18T09:54:53;4.60;;;1.42;;
64339;SDS011;63709;53.258;-8.814;2022-12-18T09:57:15;2.05;;;1.30;;
64339;SDS011;63709;53.258;-8.814;2022-12-18T10:00:19;3.47;;;1.15;;
64339;SDS011;63709;53.258;-8.814;2022-12-18T10:02:47;2.20;;;1.20;;
64339;SDS011;63709;53.258;-8.814;2022-12-18T10:05:20;3.53;;;1.40;;
64339;SDS011;63709;53.258;-8.814;2022-12-18T10:08:00;3.08;;;1.30;;
64339;SDS011;63709;53.258;-8.814;2022-12-18T10:10:43;4.22;;;1.27;;
64339;SDS011;63709;53.258;-8.814;2022-12-18T10:16:00;3.03;;;1.33;;
64339;SDS011;63709;53.258;-8.814;2022-12-18T10:18:44;3.75;;;1.40;;
64339;SDS011;63709;53.258;-8.814;2022-12-18T10:21:47;4.18;;;1.48;;
64339;SDS011;63709;53.258;-8.814;2022-12-18T10:26:54;2.78;;;1.20;;
64339;SDS011;63709;53.258;-8.814;2022-12-18T10:29:25;1.60;;;1.17;;
64339;SDS011;63709;53.258;-8.814;2022-12-18T10:31:52;2.38;;;1.30;;
64339;SDS011;63709;53.258;-8.814;2022-12-18T10:34:18;1.98;;;1.13;;
64339;SDS011;63709;53.258;-8.814;2022-12-18T10:36:44;2.35;;;1.25;;
64339;SDS011;63709;53.258;-8.814;2022-12-18T10:39:17;2.95;;;1.27;;
64339;SDS011;63709;53.258;-8.814;2022-12-18T10:41:56;2.40;;;1.27;;
64339;SDS011;63709;53.258;-8.814;2022-12-18T10:44:40;1.90;;;1.10;;
64339;SDS011;63709;53.258;-8.814;2022-12-18T10:47:06;3.35;;;1.20;;
64339;SDS011;63709;53.258;-8.814;2022-12-18T10:49:42;3.35;;;0.90;;
64339;SDS011;63709;53.258;-8.814;2022-12-18T10:52:19;1.33;;;0.90;;
64339;SDS011;63709;53.258;-8.814;2022-12-18T10:54:51;2.20;;;1.15;;
64339;SDS011;63709;53.258;-8.814;2022-12-18T10:59:58;1.70;;;1.27;;
64339;SDS011;63709;53.258;-8.814;2022-12-18T11:02:37;1.65;;;0.88;;
64339;SDS011;63709;53.258;-8.814;2022-12-18T11:05:49;2.80;;;1.13;;
64339;SDS011;63709;53.258;-8.814;2022-12-18T11:07:57;2.17;;;0.85;;
64339;SDS011;63709;53.258;-8.814;2022-12-18T11:10:31;2.72;;;1.13;;
64339;SDS011;63709;53.258;-8.814;2022-12-18T11:13:18;2.70;;;0.90;;
64339;SDS011;63709;53.258;-8.814;2022-12-18T11:15:47;3.97;;;1.10;;
64339;SDS011;63709;53.258;-8.814;2022-12-18T11:21:09;1.55;;;0.80;;
64339;SDS011;63709;53.258;-8.814;2022-12-18T11:23:45;1.40;;;0.93;;
64339;SDS011;63709;53.258;-8.814;2022-12-18T11:26:18;3.95;;;1.40;;
64339;SDS011;63709;53.258;-8.814;2022-12-18T11:31:31;1.95;;;1.20;;
64339;SDS011;63709;53.258;-8.814;2022-12-18T11:36:28;2.47;;;1.30;;
64339;SDS011;63709;53.258;-8.814;2022-12-18T11:39:01;2.75;;;1.50;;
64339;SDS011;63709;53.258;-8.814;2022-12-18T11:41:38;3.20;;;1.50;;
64339;SDS011;63709;53.258;-8.814;2022-12-18T11:49:50;3.15;;;1.17;;
64339;SDS011;63709;53.258;-8.814;2022-12-18T11:52:28;1.85;;;1.02;;
64339;SDS011;63709;53.258;-8.814;2022-12-18T11:55:15;4.15;;;1.10;;
64339;SDS011;63709;53.258;-8.814;2022-12-18T11:57:52;1.85;;;1.08;;
64339;SDS011;63709;53.258;-8.814;2022-12-18T12:00:25;4.65;;;1.17;;
64339;SDS011;63709;53.258;-8.814;2022-12-18T12:08:17;2.75;;;1.10;;
64339;SDS011;63709;53.258;-8.814;2022-12-18T12:10:51;1.80;;;0.93;;
64339;SDS011;63709;53.258;-8.814;2022-12-18T12:40:35;4.68;;;2.90;;
64339;SDS011;63709;53.258;-8.814;2022-12-18T12:43:49;8.80;;;5.15;;
64339;SDS011;63709;53.258;-8.814;2022-12-18T12:45:54;13.98;;;7.15;;
64339;SDS011;63709;53.258;-8.814;2022-12-18T12:51:50;2.28;;;1.05;;
64339;SDS011;63709;53.258;-8.814;2022-12-18T12:53:59;1.60;;;0.75;;
64339;SDS011;63709;53.258;-8.814;2022-12-18T12:56:36;12.48;;;5.78;;
64339;SDS011;63709;53.258;-8.814;2022-12-18T13:01:41;4.95;;;1.83;;
64339;SDS011;63709;53.258;-8.814;2022-12-18T13:04:19;2.50;;;1.00;;
64339;SDS011;63709;53.258;-8.814;2022-12-18T13:07:13;2.95;;;1.10;;
64339;SDS011;63709;53.258;-8.814;2022-12-18T13:15:41;2.53;;;1.20;;
64339;SDS011;63709;53.258;-8.814;2022-12-18T13:20:36;3.13;;;1.37;;
64339;SDS011;63709;53.258;-8.814;2022-12-18T13:25:52;3.05;;;1.52;;
64339;SDS011;63709;53.258;-8.814;2022-12-18T13:31:58;2.50;;;1.40;;
64339;SDS011;63709;53.258;-8.814;2022-12-18T13:34:23;2.53;;;1.27;;
64339;SDS011;63709;53.258;-8.814;2022-12-18T13:36:57;3.58;;;2.20;;
64339;SDS011;63709;53.258;-8.814;2022-12-18T13:39:57;5.75;;;3.72;;
64339;SDS011;63709;53.258;-8.814;2022-12-18T13:48:02;3.83;;;1.90;;
64339;SDS011;63709;53.258;-8.814;2022-12-18T13:50:31;3.92;;;1.75;;
64339;SDS011;63709;53.258;-8.814;2022-12-18T13:52:58;3.40;;;2.28;;
64339;SDS011;63709;53.258;-8.814;2022-12-18T13:55:25;9.23;;;4.75;;
64339;SDS011;63709;53.258;-8.814;2022-12-18T13:57:51;4.75;;;2.75;;
64339;SDS011;63709;53.258;-8.814;2022-12-18T14:00:30;6.30;;;3.08;;
64339;SDS011;63709;53.258;-8.814;2022-12-18T14:02:57;6.22;;;3.10;;
64339;SDS011;63709;53.258;-8.814;2022-12-18T14:05:34;6.43;;;4.07;;
64339;SDS011;63709;53.258;-8.814;2022-12-18T14:08:08;7.32;;;3.97;;
64339;SDS011;63709;53.258;-8.814;2022-12-18T14:10:45;5.00;;;3.03;;
64339;SDS011;63709;53.258;-8.814;2022-12-18T14:13:15;7.75;;;3.42;;
64339;SDS011;63709;53.258;-8.814;2022-12-18T14:15:46;2.63;;;1.25;;
64339;SDS011;63709;53.258;-8.814;2022-12-18T14:18:19;2.95;;;1.55;;
64339;SDS011;63709;53.258;-8.814;2022-12-18T14:21:03;4.28;;;1.70;;
64339;SDS011;63709;53.258;-8.814;2022-12-18T14:25:58;2.33;;;1.42;;
64339;SDS011;63709;53.258;-8.814;2022-12-18T14:28:25;2.67;;;1.75;;
64339;SDS011;63709;53.258;-8.814;2022-12-18T14:30:51;2.38;;;1.52;;
64339;SDS011;63709;53.258;-8.814;2022-12-18T14:33:22;2.30;;;1.63;;
64339;SDS011;63709;53.258;-8.814;2022-12-18T14:35:58;6.93;;;4.40;;
64339;SDS011;63709;53.258;-8.814;2022-12-18T14:38:28;2.17;;;1.30;;
64339;SDS011;63709;53.258;-8.814;2022-12-18T14:41:02;2.05;;;1.27;;
64339;SDS011;63709;53.258;-8.814;2022-12-18T14:43:34;2.10;;;1.15;;
64339;SDS011;63709;53.258;-8.814;2022-12-18T14:46:01;3.95;;;1.30;;
64339;SDS011;63709;53.258;-8.814;2022-12-18T14:48:39;2.13;;;1.10;;
64339;SDS011;63709;53.258;-8.814;2022-12-18T14:51:15;2.28;;;1.33;;
64339;SDS011;63709;53.258;-8.814;2022-12-18T14:53:47;3.08;;;1.77;;
64339;SDS011;63709;53.258;-8.814;2022-12-18T14:56:22;1.92;;;1.02;;
64339;SDS011;63709;53.258;-8.814;2022-12-18T15:04:23;2.83;;;1.30;;
64339;SDS011;63709;53.258;-8.814;2022-12-18T15:07:02;3.05;;;1.58;;
64339;SDS011;63709;53.258;-8.814;2022-12-18T15:09:31;2.85;;;1.58;;
64339;SDS011;63709;53.258;-8.814;2022-12-18T15:12:00;2.47;;;1.35;;
64339;SDS011;63709;53.258;-8.814;2022-12-18T15:16:56;2.20;;;1.58;;
64339;SDS011;63709;53.258;-8.814;2022-12-18T15:19:32;2.80;;;1.67;;
64339;SDS011;63709;53.258;-8.814;2022-12-18T15:22:28;2.40;;;1.55;;
64339;SDS011;63709;53.258;-8.814;2022-12-18T15:24:57;1.88;;;1.40;;
64339;SDS011;63709;53.258;-8.814;2022-12-18T15:27:28;16.85;;;7.20;;
64339;SDS011;63709;53.258;-8.814;2022-12-18T15:30:02;13.52;;;5.13;;
64339;SDS011;63709;53.258;-8.814;2022-12-18T15:32:35;20.15;;;7.88;;
64339;SDS011;63709;53.258;-8.814;2022-12-18T15:37:39;8.30;;;4.20;;
64339;SDS011;63709;53.258;-8.814;2022-12-18T15:40:07;3.67;;;2.70;;
64339;SDS011;63709;53.258;-8.814;2022-12-18T15:42:37;4.88;;;3.80;;
64339;SDS011;63709;53.258;-8.814;2022-12-18T15:45:21;6.05;;;4.00;;
64339;SDS011;63709;53.258;-8.814;2022-12-18T15:47:47;4.95;;;3.70;;
64339;SDS011;63709;53.258;-8.814;2022-12-18T15:50:13;3.50;;;2.65;;
64339;SDS011;63709;53.258;-8.814;2022-12-18T15:52:39;4.10;;;2.92;;
64339;SDS011;63709;53.258;-8.814;2022-12-18T15:55:18;4.72;;;2.78;;
64339;SDS011;63709;53.258;-8.814;2022-12-18T15:58:05;11.63;;;6.55;;
64339;SDS011;63709;53.258;-8.814;2022-12-18T16:00:34;5.90;;;4.35;;
64339;SDS011;63709;53.258;-8.814;2022-12-18T16:03:01;5.63;;;3.30;;
64339;SDS011;63709;53.258;-8.814;2022-12-18T16:05:27;4.78;;;3.60;;
64339;SDS011;63709;53.258;-8.814;2022-12-18T16:07:54;5.25;;;2.95;;
64339;SDS011;63709;53.258;-8.814;2022-12-18T16:10:21;3.72;;;2.50;;
64339;SDS011;63709;53.258;-8.814;2022-12-18T16:12:47;2.33;;;1.80;;
64339;SDS011;63709;53.258;-8.814;2022-12-18T16:15:14;3.00;;;2.05;;
64339;SDS011;63709;53.258;-8.814;2022-12-18T16:17:42;3.10;;;2.00;;
64339;SDS011;63709;53.258;-8.814;2022-12-18T16:20:20;5.18;;;2.25;;
64339;SDS011;63709;53.258;-8.814;2022-12-18T16:22:47;4.10;;;2.13;;
64339;SDS011;63709;53.258;-8.814;2022-12-18T16:25:21;3.33;;;2.45;;
64339;SDS011;63709;53.258;-8.814;2022-12-18T16:27:53;2.47;;;2.03;;
64339;SDS011;63709;53.258;-8.814;2022-12-18T16:30:27;3.15;;;1.95;;
64339;SDS011;63709;53.258;-8.814;2022-12-18T16:32:56;3.42;;;2.22;;
64339;SDS011;63709;53.258;-8.814;2022-12-18T16:35:23;6.22;;;3.35;;
64339;SDS011;63709;53.258;-8.814;2022-12-18T16:40:17;4.63;;;2.53;;
64339;SDS011;63709;53.258;-8.814;2022-12-18T16:42:44;3.80;;;2.40;;
64339;SDS011;63709;53.258;-8.814;2022-12-18T16:45:12;4.55;;;2.60;;
64339;SDS011;63709;53.258;-8.814;2022-12-18T16:47:40;3.65;;;2.85;;
64339;SDS011;63709;53.258;-8.814;2022-12-18T16:50:07;3.47;;;2.78;;
64339;SDS011;63709;53.258;-8.814;2022-12-18T16:52:34;3.03;;;2.20;;
64339;SDS011;63709;53.258;-8.814;2022-12-18T16:55:02;3.30;;;2.50;;
64339;SDS011;63709;53.258;-8.814;2022-12-18T16:57:29;3.65;;;2.20;;
64339;SDS011;63709;53.258;-8.814;2022-12-18T16:59:54;4.13;;;2.75;;
64339;SDS011;63709;53.258;-8.814;2022-12-18T17:02:22;5.47;;;2.70;;
64339;SDS011;63709;53.258;-8.814;2022-12-18T17:04:49;4.05;;;2.75;;
64339;SDS011;63709;53.258;-8.814;2022-12-18T17:07:18;4.97;;;2.58;;
64339;SDS011;63709;53.258;-8.814;2022-12-18T17:09:43;7.88;;;2.85;;